METAR Data
IDs: Format: Raw Decoded Include TAF

Data at: 2131 UTC 18 Apr 2021

EGBB 182120Z 22001KT CAVOK 06/M00 Q1024

No METAR found for EGBJ

EGVN 182120Z 02003KT CAVOK 07/M03 Q1023 NOSIG RMK BLU BLU

EGTK 181950Z 04002KT CAVOK 09/M03 Q1023

No METAR found for EGWC

EGTC 181650Z 34006KT CAVOK 12/M03 Q1023

EGNX 182120Z 11007KT CAVOK 08/M01 Q1024